Welcome, Guest. Please login or register.
Did you miss your activation email?

Username: Password:
Outdoor Wood Furnace Info - Statistics Center
General Statistics
Total Members: 8216
Total Posts: 76921
Total Topics: 7230
Total Categories: 6
Users Online: 7
Most Online: 165 - May 22, 2013, 12:42:02 PM
Online Today: 32
Average registrations per day: 7.65
Average posts per day: 21.76
Average topics per day: 2.52
Total Boards: 50
Latest Member: Hunt4heat
Average online per day: 24.97
Male to Female Ratio: 89.8:1
Top 10 Posters Top 10 Boards
mlappin 3904
Scott7m 3740
RSI 2899
willieG 1852
Roger2561 1632
hondaracer2oo4 1423
coolidge 1403
atvalaska 1278
MattyNH 1275
caper 1181
General Outdoor Furnace Discussion 30423
Plumbing 7491
Central Boiler 4679
General Discussion 4391
HeatMaster 3958
Portage & Main 3689
Fire Wood 3257
Home Made 2485
Equipment 2272
Electronics 2184
Top 10 Topics (by Replies) Top 10 Topics (by Views)
new heatmor and having huge issues 491
our wood stoves are horrible but epa thinks this is fine 344
Gasification wood boiler build 303
Almost 172
Wood Consumption vs. Application 144
TYPE of CHAIN SAWS USED 138
ProFab has some issues! 130
Ridgewood stoves 124
Global warming, climate change? Article 124
I'm impressed 123
Synergy Boilers? 580807
HELP! I hate my SHAVER! 468347
TAKE A STAND AGAINST MIDWEST (SYNERGY) BOILERS 448516
Synergy Boilers 98685
Gasification wood boiler build 61807
new heatmor and having huge issues 36846
Truth about Wood Doctor by president 31895
Suggested Water Temperature on Boiler 28651
My homemade/modified forced air wood furnace 28607
Used Hardy Stove info 24831
Top Topic Starters Most Time Online
coolidge 334
Roger2561 223
mlappin 109
slimjim 107
Scott7m 102
d5knapp 93
userdk 71
AirForcePOL 66
hondaracer2oo4 60
heat550 56
slimjim 90d 11h 5m
willieG 89d 16h 0m
RSI 47d 13h 26m
mlappin 37d 13h 17m
Scott7m 35d 21h 14m
koutsman 29d 18h 10m
MD20/20 26d 15h 13m
sceptre74 25d 4h 51m
CountryBoyJohn 21d 7h 36m
Roger2561 20d 20h 42m
Forum History (using forum time offset)
Yearly Summary New Topics New Posts New Members Most Online
* 2018 259 2817 5838 91
* 2017 597 7391 3268 65
* 2016 546 5025 3090 75
December 2016 75 786 262 49
November 2016 55 512 251 75
October 2016 50 389 217 39
September 2016 43 244 237 27
August 2016 20 105 129 44
July 2016 14 75 126 53
June 2016 11 86 151 49
May 2016 22 164 179 39
April 2016 22 222 548 51
March 2016 43 454 576 68
2016-03-01 4 28 7 27
2016-03-02 4 29 7 31
2016-03-03 1 19 12 25
2016-03-04 1 19 6 27
2016-03-05 1 8 6 25
2016-03-06 3 32 3 29
2016-03-07 3 20 6 28
2016-03-08 0 9 3 24
2016-03-09 0 5 12 28
2016-03-10 1 7 6 40
2016-03-11 0 9 6 25
2016-03-12 0 20 3 25
2016-03-13 1 8 4 24
2016-03-14 4 27 6 30
2016-03-15 0 10 5 25
2016-03-16 1 5 4 26
2016-03-17 1 7 8 25
2016-03-18 1 14 6 22
2016-03-19 1 17 31 20
2016-03-20 2 7 26 24
2016-03-21 1 15 27 33
2016-03-22 1 16 34 30
2016-03-23 3 17 44 32
2016-03-24 1 8 29 26
2016-03-25 2 20 28 27
2016-03-26 1 17 36 25
2016-03-27 1 16 36 25
2016-03-28 1 9 46 34
2016-03-29 1 12 50 48
2016-03-30 1 11 43 68
2016-03-31 1 13 36 45
February 2016 74 806 123 58
January 2016 117 1182 291 52
* 2015 1317 11279 9513 67
December 2015 106 910 2179 40
November 2015 236 968 2620 60
October 2015 169 843 906 46
September 2015 42 202 593 35
2015-09-01 3 27 11 27
2015-09-02 3 8 32 26
2015-09-03 3 9 30 26
2015-09-04 5 14 24 23
2015-09-05 1 8 28 24
2015-09-06 2 18 23 24
2015-09-07 2 5 18 24
2015-09-08 0 2 8 26
2015-09-10 0 2 16 28
2015-09-11 0 0 25 31
2015-09-12 0 1 20 32
2015-09-13 1 3 24 33
2015-09-14 0 5 21 35
2015-09-15 0 5 20 32
2015-09-16 1 5 12 26
2015-09-17 2 6 22 29
2015-09-18 0 10 26 25
2015-09-19 0 3 27 28
2015-09-20 2 2 30 26
2015-09-21 3 4 16 27
2015-09-22 1 4 20 27
2015-09-23 1 3 28 32
2015-09-24 1 2 18 26
2015-09-25 2 4 17 24
2015-09-26 0 7 14 35
2015-09-27 1 2 10 35
2015-09-28 1 8 4 30
2015-09-29 5 23 31 28
2015-09-30 2 12 18 29
August 2015 49 274 447 41
July 2015 35 353 449 53
June 2015 32 269 266 42
May 2015 66 519 364 46
April 2015 92 795 418 39
March 2015 113 1670 400 46
February 2015 175 2072 445 56
January 2015 202 2404 426 67
* 2014 2461 21938 4588 110
December 2014 215 2107 549 52
November 2014 197 1812 286 67
October 2014 172 1628 410 60
September 2014 122 1114 280 58
August 2014 75 619 251 50
July 2014 63 577 318 56
2014-07-01 0 5 8 47
2014-07-02 4 31 16 48
2014-07-03 2 23 8 44
2014-07-04 2 3 12 47
2014-07-05 2 12 13 56
2014-07-06 2 22 14 45
2014-07-07 2 25 16 42
2014-07-08 1 12 12 42
2014-07-09 2 23 12 45
2014-07-10 5 18 7 41
2014-07-11 2 25 15 52
2014-07-12 1 14 8 33
2014-07-13 2 20 10 35
2014-07-14 1 33 9 41
2014-07-15 6 48 16 51
2014-07-16 2 27 11 51
2014-07-17 1 9 10 46
2014-07-18 0 5 8 38
2014-07-19 1 1 7 34
2014-07-20 1 9 9 35
2014-07-21 2 11 10 33
2014-07-22 4 13 10 42
2014-07-23 2 16 8 39
2014-07-24 2 23 11 39
2014-07-25 4 35 10 45
2014-07-26 2 25 7 41
2014-07-27 1 7 12 41
2014-07-28 1 11 8 41
2014-07-29 1 21 5 30
2014-07-30 3 22 6 53
2014-07-31 2 28 10 38
June 2014 654 2289 733 61
May 2014 158 1011 490 49
April 2014 130 2321 281 57
March 2014 188 2594 282 110
February 2014 229 2915 334 78
January 2014 258 2951 374 86
* 2013 1171 11341 1091 165
* 2012 1863 11381 918 70
* 2011 741 7884 698 76
* 2010 444 2717 284 98
December 2010 51 657 81 27
November 2010 39 339 52 25
2010-11-01 1 8 1 14
2010-11-02 3 13 3 14
2010-11-03 3 15 4 16
2010-11-04 5 21 4 25
2010-11-05 1 26 1 17
2010-11-06 2 13 2 12
2010-11-07 2 8 3 14
2010-11-08 1 14 1 16
2010-11-09 0 10 3 16
2010-11-10 2 11 1 15
2010-11-11 1 9 2 13
2010-11-12 1 16 1 15
2010-11-13 1 9 1 13
2010-11-14 0 5 1 19
2010-11-15 0 7 2 14
2010-11-16 2 17 3 14
2010-11-17 1 15 2 14
2010-11-18 1 9 2 18
2010-11-19 0 7 1 14
2010-11-20 0 4 2 15
2010-11-21 0 4 1 16
2010-11-22 1 4 2 15
2010-11-23 2 7 0 14
2010-11-24 1 19 1 14
2010-11-25 0 15 0 18
2010-11-26 1 5 0 12
2010-11-27 1 2 2 18
2010-11-28 0 3 1 20
2010-11-29 2 15 2 18
2010-11-30 4 28 3 19
October 2010 43 332 38 20
September 2010 34 254 23 14
August 2010 9 72 14 14
July 2010 10 60 8 16
June 2010 11 51 4 15
May 2010 8 42 9 12
2010-05-01 0 0 1 7
2010-05-02 0 0 0 9
2010-05-03 0 3 0 12
2010-05-04 0 0 0 9
2010-05-05 1 3 1 7
2010-05-06 1 2 0 7
2010-05-07 0 3 0 10
2010-05-08 0 1 0 6
2010-05-09 0 2 1 7
2010-05-10 1 1 1 7
2010-05-11 0 2 0 8
2010-05-12 0 0 0 7
2010-05-13 0 1 0 8
2010-05-14 0 0 0 7
2010-05-15 0 0 0 5
2010-05-16 0 0 0 6
2010-05-17 0 0 0 11
2010-05-18 0 0 0 6
2010-05-19 0 0 0 6
2010-05-20 0 0 0 6
2010-05-21 2 4 1 7
2010-05-22 0 0 0 7
2010-05-23 1 3 1 8
2010-05-24 0 4 1 10
2010-05-25 0 0 0 6
2010-05-26 2 6 1 8
2010-05-27 0 3 0 7
2010-05-28 0 1 0 6
2010-05-29 0 0 0 6
2010-05-30 0 3 1 8
2010-05-31 0 0 0 7
April 2010 13 94 10 13
March 2010 157 266 11 14
February 2010 23 193 7 98
January 2010 46 357 27 18
* 2009 217 1823 163 20
* 2008 119 553 148 28